createdAt,value
2023-02-14T00:02:58.093Z,1.05
2023-02-14T00:07:01.162Z,0.95
2023-02-14T00:11:04.043Z,1.35
2023-02-14T00:15:24.849Z,1.05
2023-02-14T00:19:26.674Z,0.98
2023-02-14T00:23:28.108Z,1.30
2023-02-14T00:27:29.569Z,0.70
2023-02-14T00:31:31.294Z,0.98
2023-02-14T00:35:32.771Z,1.23
2023-02-14T00:39:34.218Z,0.80
2023-02-14T00:43:35.897Z,1.30
2023-02-14T00:47:37.375Z,1.42
2023-02-14T00:51:39.169Z,1.00
2023-02-14T00:55:40.819Z,1.00
2023-02-14T00:59:43.105Z,1.60
2023-02-14T01:03:44.703Z,1.60
2023-02-14T01:07:46.253Z,1.20
2023-02-14T01:11:48.717Z,1.65
2023-02-14T01:15:51.829Z,1.42
2023-02-14T01:19:53.916Z,1.30
2023-02-14T01:23:57.401Z,1.45
2023-02-14T01:27:59.064Z,1.85
2023-02-14T01:32:00.589Z,1.58
2023-02-14T01:36:02.249Z,1.15
2023-02-14T01:40:06.674Z,1.60
2023-02-14T01:44:28.154Z,1.40
2023-02-14T01:48:29.643Z,1.00
2023-02-14T01:53:05.362Z,1.40
2023-02-14T01:57:09.727Z,0.90
2023-02-14T02:01:13.397Z,1.60
2023-02-14T02:05:16.106Z,1.88
2023-02-14T02:09:26.195Z,1.80
2023-02-14T02:13:27.827Z,1.15
2023-02-14T02:18:00.744Z,1.23
2023-02-14T02:22:39.348Z,1.30
2023-02-14T02:26:58.892Z,1.52
2023-02-14T02:31:31.840Z,1.75
2023-02-14T02:35:44.737Z,1.83
2023-02-14T02:39:46.202Z,1.65
2023-02-14T02:43:56.930Z,1.90
2023-02-14T02:48:11.906Z,1.63
2023-02-14T02:53:03.485Z,1.73
2023-02-14T02:57:12.758Z,1.63
2023-02-14T03:01:43.175Z,1.67
2023-02-14T03:05:44.971Z,1.40
2023-02-14T03:09:57.405Z,1.50
2023-02-14T03:14:19.181Z,2.28
2023-02-14T03:18:51.292Z,1.52
2023-02-14T03:23:16.786Z,1.70
2023-02-14T03:27:35.193Z,2.05
2023-02-14T03:31:47.573Z,1.55
2023-02-14T03:36:02.021Z,2.03
2023-02-14T03:40:22.572Z,1.65
2023-02-14T03:44:29.340Z,1.35
2023-02-14T03:48:33.549Z,1.90
2023-02-14T03:52:37.154Z,1.65
2023-02-14T03:56:45.849Z,1.92
2023-02-14T04:00:51.759Z,1.52
2023-02-14T04:04:54.237Z,2.03
2023-02-14T04:08:55.676Z,2.30
2023-02-14T04:12:57.163Z,1.65
2023-02-14T04:17:17.026Z,1.83
2023-02-14T04:21:18.452Z,1.65
2023-02-14T04:25:21.640Z,2.58
2023-02-14T04:29:23.226Z,2.20
2023-02-14T04:33:24.711Z,1.95
2023-02-14T04:37:26.220Z,1.75
2023-02-14T04:41:27.640Z,1.20
2023-02-14T04:45:29.100Z,1.35
2023-02-14T04:49:30.676Z,1.80
2023-02-14T04:53:32.118Z,1.25
2023-02-14T04:57:33.709Z,1.75
2023-02-14T05:01:35.170Z,1.50
2023-02-14T05:05:36.660Z,1.65
2023-02-14T05:09:38.146Z,1.85
2023-02-14T05:13:39.616Z,1.70
2023-02-14T05:17:41.034Z,1.73
2023-02-14T05:21:42.491Z,1.23
2023-02-14T05:25:44.121Z,1.95
2023-02-14T05:29:45.588Z,1.95
2023-02-14T05:33:47.056Z,1.70
2023-02-14T05:37:48.670Z,2.53
2023-02-14T05:41:50.119Z,1.77
2023-02-14T05:45:51.814Z,2.40
2023-02-14T05:49:53.236Z,2.95
2023-02-14T05:53:54.693Z,3.22
2023-02-14T05:57:56.173Z,2.28
2023-02-14T06:01:57.631Z,2.42
2023-02-14T06:05:59.086Z,2.45
2023-02-14T06:10:00.589Z,3.65
2023-02-14T06:14:02.045Z,2.88
2023-02-14T06:18:04.483Z,3.15
2023-02-14T06:22:05.946Z,3.28
2023-02-14T06:26:07.363Z,2.53
2023-02-14T06:30:10.774Z,3.20
2023-02-14T06:34:12.286Z,2.75
2023-02-14T06:38:13.849Z,3.42
2023-02-14T06:42:15.306Z,3.35
2023-02-14T06:46:18.434Z,2.92
2023-02-14T06:50:19.937Z,2.78
2023-02-14T06:54:21.340Z,3.33
2023-02-14T06:58:22.883Z,2.38
2023-02-14T07:02:25.142Z,3.92
2023-02-14T07:06:26.750Z,3.83
2023-02-14T07:10:28.247Z,2.92
2023-02-14T07:14:29.707Z,3.28
2023-02-14T07:18:31.156Z,4.85
2023-02-14T07:22:33.695Z,4.90
2023-02-14T07:26:35.127Z,5.00
2023-02-14T07:30:36.740Z,4.97
2023-02-14T07:34:38.162Z,4.53
2023-02-14T07:38:39.617Z,5.47
2023-02-14T07:42:41.468Z,4.40
2023-02-14T07:46:43.024Z,5.45
2023-02-14T07:50:44.631Z,4.68
2023-02-14T07:54:46.106Z,5.25
2023-02-14T07:58:49.605Z,4.82
2023-02-14T08:02:51.266Z,4.47
2023-02-14T08:06:54.040Z,4.78
2023-02-14T08:10:55.715Z,5.00
2023-02-14T08:15:17.133Z,5.68
2023-02-14T08:19:18.534Z,5.68
2023-02-14T08:23:21.069Z,6.05
2023-02-14T08:27:22.583Z,6.20
2023-02-14T08:31:35.610Z,7.80
2023-02-14T08:35:37.388Z,6.65
2023-02-14T08:39:39.416Z,5.47
2023-02-14T08:43:41.235Z,6.97
2023-02-14T08:47:42.804Z,6.00
2023-02-14T08:51:44.241Z,4.90
2023-02-14T08:55:45.696Z,6.03
2023-02-14T08:59:47.346Z,5.15
2023-02-14T09:03:48.890Z,5.50
2023-02-14T09:07:50.777Z,4.07
2023-02-14T09:11:52.352Z,4.53
2023-02-14T09:15:53.765Z,6.70
2023-02-14T09:19:55.181Z,4.47
2023-02-14T09:23:56.854Z,5.13
2023-02-14T09:27:58.311Z,4.72
2023-02-14T09:32:01.397Z,6.93
2023-02-14T09:36:11.712Z,5.20
2023-02-14T09:40:16.765Z,5.97
2023-02-14T09:44:27.708Z,6.50
2023-02-14T09:48:33.890Z,5.75
2023-02-14T09:52:35.324Z,6.25
2023-02-14T09:56:52.007Z,4.95
2023-02-14T10:01:02.936Z,5.68
2023-02-14T10:05:17.994Z,6.28
2023-02-14T10:09:34.430Z,5.28
2023-02-14T10:13:51.239Z,6.00
2023-02-14T10:18:01.604Z,5.35
2023-02-14T10:22:09.309Z,6.80
2023-02-14T10:26:24.409Z,6.00
2023-02-14T10:30:26.169Z,5.50
2023-02-14T10:34:37.450Z,8.45
2023-02-14T10:39:20.948Z,7.53
2023-02-14T10:43:36.458Z,6.18
2023-02-14T10:48:10.573Z,6.22
2023-02-14T10:52:32.225Z,5.93
2023-02-14T10:56:40.085Z,6.95
2023-02-14T11:00:53.170Z,4.53
2023-02-14T11:04:54.920Z,4.55
2023-02-14T11:08:57.410Z,3.45
2023-02-14T11:12:59.400Z,4.55
2023-02-14T11:17:31.129Z,3.10
2023-02-14T11:21:39.128Z,3.67
2023-02-14T11:25:40.638Z,4.97
2023-02-14T11:29:44.928Z,5.43
2023-02-14T11:33:50.610Z,6.95
2023-02-14T11:37:55.213Z,6.65
2023-02-14T11:41:59.827Z,6.57
2023-02-14T11:46:20.514Z,6.75
2023-02-14T11:50:24.666Z,7.40
2023-02-14T11:54:30.710Z,5.63
2023-02-14T11:58:50.570Z,5.97
2023-02-14T12:02:53.636Z,4.93
2023-02-14T12:06:55.699Z,5.63
2023-02-14T12:11:19.498Z,5.45
2023-02-14T12:15:23.984Z,5.43
2023-02-14T12:19:41.470Z,5.15
2023-02-14T12:24:12.464Z,5.97
2023-02-14T12:28:21.148Z,4.60
2023-02-14T12:32:27.845Z,7.63
2023-02-14T12:36:51.043Z,5.68
2023-02-14T12:41:20.930Z,5.68
2023-02-14T12:45:46.577Z,5.30
2023-02-14T12:50:22.765Z,5.53
2023-02-14T12:54:41.617Z,5.97
2023-02-14T12:59:15.212Z,5.32
2023-02-14T13:03:35.251Z,5.40
2023-02-14T13:07:56.732Z,5.90
2023-02-14T13:12:05.950Z,4.97
2023-02-14T13:16:14.912Z,4.82
2023-02-14T13:20:19.777Z,4.70
2023-02-14T13:24:30.717Z,3.63
2023-02-14T13:28:33.762Z,3.90
2023-02-14T13:32:40.850Z,4.30
2023-02-14T13:36:43.847Z,6.97
2023-02-14T13:40:47.189Z,5.35
2023-02-14T13:44:52.655Z,3.85
2023-02-14T13:49:15.459Z,4.35
2023-02-14T13:53:31.585Z,3.85
2023-02-14T13:57:39.330Z,4.72
2023-02-14T14:01:47.937Z,7.05
2023-02-14T14:05:58.301Z,4.43
2023-02-14T14:10:02.013Z,7.00
2023-02-14T14:14:25.110Z,4.90
2023-02-14T14:18:37.246Z,4.38
2023-02-14T14:22:47.915Z,6.60
2023-02-14T14:31:21.742Z,9.18
2023-02-14T14:35:25.957Z,9.77
2023-02-14T14:39:30.594Z,5.85
2023-02-14T14:43:38.402Z,5.35
2023-02-14T14:47:45.289Z,5.55
2023-02-14T14:51:48.145Z,4.68
2023-02-14T14:55:52.071Z,4.35
2023-02-14T15:00:35.474Z,4.85
2023-02-14T15:04:37.029Z,4.60
2023-02-14T15:08:38.580Z,5.72
2023-02-14T15:12:58.754Z,5.85
2023-02-14T15:21:21.226Z,4.00
2023-02-14T15:25:25.179Z,4.75
2023-02-14T15:29:30.240Z,4.60
2023-02-14T15:33:33.363Z,4.00
2023-02-14T15:37:35.175Z,4.18
2023-02-14T15:41:37.166Z,4.75
2023-02-14T15:45:38.793Z,4.50
2023-02-14T15:49:43.455Z,5.20
2023-02-14T15:53:54.816Z,3.63
2023-02-14T15:58:04.079Z,4.07
2023-02-14T16:02:42.015Z,5.38
2023-02-14T16:06:46.808Z,5.03
2023-02-14T16:11:26.630Z,5.57
2023-02-14T16:15:33.829Z,3.78
2023-02-14T16:19:41.594Z,5.65
2023-02-14T16:23:45.124Z,5.90
2023-02-14T16:27:46.587Z,4.70
2023-02-14T16:32:16.072Z,4.90
2023-02-14T16:36:26.205Z,5.40
2023-02-14T16:40:28.691Z,6.30
2023-02-14T16:44:30.155Z,6.38
2023-02-14T16:48:31.932Z,6.45
2023-02-14T16:52:33.722Z,5.47
2023-02-14T16:56:44.512Z,6.55
2023-02-14T17:00:46.070Z,6.10
2023-02-14T17:04:47.599Z,4.95
2023-02-14T17:08:52.000Z,5.25
2023-02-14T17:12:55.818Z,5.20
2023-02-14T17:16:58.404Z,5.40
2023-02-14T17:21:00.851Z,4.55
2023-02-14T17:25:03.801Z,5.95
2023-02-14T17:29:06.807Z,4.40
2023-02-14T17:33:08.291Z,5.82
2023-02-14T17:37:09.716Z,4.72
2023-02-14T17:41:13.637Z,4.82
2023-02-14T17:45:15.264Z,6.07
2023-02-14T17:49:16.736Z,5.40
2023-02-14T17:53:18.249Z,4.57
2023-02-14T17:57:20.410Z,5.18
2023-02-14T18:01:24.406Z,4.53
2023-02-14T18:05:26.061Z,5.03
2023-02-14T18:20:53.955Z,4.13
2023-02-14T18:24:58.503Z,3.85
2023-02-14T18:29:01.146Z,6.07
2023-02-14T18:33:02.545Z,6.57
2023-02-14T18:49:45.353Z,5.90
2023-02-14T18:53:47.957Z,4.90
2023-02-14T18:57:49.466Z,4.47
2023-02-14T19:01:50.941Z,4.75
2023-02-14T19:05:53.433Z,6.43
2023-02-14T19:09:54.954Z,4.47
2023-02-14T19:13:58.233Z,6.03
2023-02-14T19:19:19.364Z,4.65
2023-02-14T20:19:26.954Z,3.13
2023-02-14T20:24:52.631Z,3.65
2023-02-14T20:30:03.843Z,3.88
2023-02-14T20:40:56.978Z,5.32
2023-02-14T20:45:19.304Z,4.88
2023-02-14T20:54:04.699Z,5.35
2023-02-14T20:58:06.170Z,5.85
2023-02-14T21:02:10.077Z,5.68
2023-02-14T21:06:11.806Z,5.88
2023-02-14T21:10:13.392Z,4.65
2023-02-14T21:14:17.242Z,5.45
2023-02-14T21:18:18.712Z,4.53
2023-02-14T21:22:20.270Z,4.05
2023-02-14T21:26:21.696Z,4.15
2023-02-14T21:30:23.193Z,5.72
2023-02-14T21:34:26.804Z,5.15
2023-02-14T21:38:28.226Z,3.47
2023-02-14T21:42:29.718Z,5.32
2023-02-14T21:46:35.647Z,4.75
2023-02-14T21:50:37.852Z,4.07
2023-02-14T21:54:39.369Z,4.53
2023-02-14T21:58:40.903Z,4.43
2023-02-14T22:02:42.577Z,3.65
2023-02-14T22:06:44.063Z,3.50
2023-02-14T22:10:45.606Z,4.38
2023-02-14T22:14:47.013Z,3.88
2023-02-14T22:18:48.902Z,4.28
2023-02-14T22:22:50.292Z,4.13
2023-02-14T22:26:51.707Z,4.10
2023-02-14T22:30:53.153Z,3.85
2023-02-14T22:34:54.902Z,3.90
2023-02-14T22:38:56.320Z,3.78
2023-02-14T22:42:58.010Z,5.68
2023-02-14T22:46:59.435Z,4.55
2023-02-14T22:51:14.458Z,4.55
2023-02-14T22:55:16.129Z,5.10
2023-02-14T22:59:55.975Z,4.85
2023-02-14T23:03:59.544Z,4.38
2023-02-14T23:13:50.047Z,5.32
2023-02-14T23:18:45.798Z,4.93
2023-02-14T23:29:46.019Z,6.40
2023-02-14T23:52:54.181Z,4.00
2023-02-14T23:56:57.499Z,3.80
